sensor_id;sensor_type;location;lat;lon;timestamp;temperature;humidity
52451;DHT22;38366;53.176;6.540;2022-12-18T00:01:25;-2.80;99.90
52451;DHT22;38366;53.176;6.540;2022-12-18T00:03:52;-2.10;99.90
52451;DHT22;38366;53.176;6.540;2022-12-18T00:06:19;-2.90;99.90
52451;DHT22;38366;53.176;6.540;2022-12-18T00:08:45;-0.50;99.90
52451;DHT22;38366;53.176;6.540;2022-12-18T00:11:13;-2.70;99.90
52451;DHT22;38366;53.176;6.540;2022-12-18T00:13:39;-2.70;99.90
52451;DHT22;38366;53.176;6.540;2022-12-18T00:16:07;-1.10;99.90
52451;DHT22;38366;53.176;6.540;2022-12-18T00:18:34;-2.80;99.90
52451;DHT22;38366;53.176;6.540;2022-12-18T00:21:04;-1.90;99.90
52451;DHT22;38366;53.176;6.540;2022-12-18T00:23:31;-2.70;99.90
52451;DHT22;38366;53.176;6.540;2022-12-18T00:26:02;-2.80;99.90
52451;DHT22;38366;53.176;6.540;2022-12-18T00:28:28;-1.20;99.90
52451;DHT22;38366;53.176;6.540;2022-12-18T00:31:05;-1.60;99.90
52451;DHT22;38366;53.176;6.540;2022-12-18T00:33:31;-0.90;99.90
52451;DHT22;38366;53.176;6.540;2022-12-18T00:36:14;-3.10;99.90
52451;DHT22;38366;53.176;6.540;2022-12-18T00:38:41;-3.00;99.90
52451;DHT22;38366;53.176;6.540;2022-12-18T00:41:09;-3.10;99.90
52451;DHT22;38366;53.176;6.540;2022-12-18T00:43:36;-2.10;99.90
52451;DHT22;38366;53.176;6.540;2022-12-18T00:46:02;-0.80;99.90
52451;DHT22;38366;53.176;6.540;2022-12-18T00:48:28;-1.40;99.90
52451;DHT22;38366;53.176;6.540;2022-12-18T00:50:53;-1.20;99.90
52451;DHT22;38366;53.176;6.540;2022-12-18T00:53:19;-1.60;99.90
52451;DHT22;38366;53.176;6.540;2022-12-18T00:55:45;-3.50;99.90
52451;DHT22;38366;53.176;6.540;2022-12-18T00:58:13;-3.40;99.90
52451;DHT22;38366;53.176;6.540;2022-12-18T01:00:39;-3.20;99.90
52451;DHT22;38366;53.176;6.540;2022-12-18T01:03:05;-3.40;99.90
52451;DHT22;38366;53.176;6.540;2022-12-18T01:05:31;-1.10;99.90
52451;DHT22;38366;53.176;6.540;2022-12-18T01:07:58;-3.30;99.90
52451;DHT22;38366;53.176;6.540;2022-12-18T01:10:24;-3.10;99.90
52451;DHT22;38366;53.176;6.540;2022-12-18T01:12:50;-1.10;99.90
52451;DHT22;38366;53.176;6.540;2022-12-18T01:15:16;-3.30;99.90
52451;DHT22;38366;53.176;6.540;2022-12-18T01:17:42;-1.10;99.90
52451;DHT22;38366;53.176;6.540;2022-12-18T01:20:09;-0.90;99.90
52451;DHT22;38366;53.176;6.540;2022-12-18T01:22:35;-3.20;99.90
52451;DHT22;38366;53.176;6.540;2022-12-18T01:25:01;-1.10;99.90
52451;DHT22;38366;53.176;6.540;2022-12-18T01:27:27;-3.20;99.90
52451;DHT22;38366;53.176;6.540;2022-12-18T01:29:53;-1.20;99.90
52451;DHT22;38366;53.176;6.540;2022-12-18T01:32:18;-1.90;99.90
52451;DHT22;38366;53.176;6.540;2022-12-18T01:34:44;-3.20;99.90
52451;DHT22;38366;53.176;6.540;2022-12-18T01:37:10;-1.80;99.90
52451;DHT22;38366;53.176;6.540;2022-12-18T01:39:36;-2.20;99.90
52451;DHT22;38366;53.176;6.540;2022-12-18T01:42:11;-3.50;99.90
52451;DHT22;38366;53.176;6.540;2022-12-18T01:47:49;-3.40;99.90
52451;DHT22;38366;53.176;6.540;2022-12-18T01:50:36;-3.00;99.90
52451;DHT22;38366;53.176;6.540;2022-12-18T01:53:21;-3.40;99.90
52451;DHT22;38366;53.176;6.540;2022-12-18T01:55:56;-3.80;99.90
52451;DHT22;38366;53.176;6.540;2022-12-18T01:58:30;-4.00;99.90
52451;DHT22;38366;53.176;6.540;2022-12-18T02:00:58;-4.10;99.90
52451;DHT22;38366;53.176;6.540;2022-12-18T02:06:07;-3.80;99.90
52451;DHT22;38366;53.176;6.540;2022-12-18T02:14:23;-4.00;99.90
52451;DHT22;38366;53.176;6.540;2022-12-18T02:19:51;-4.20;99.90
52451;DHT22;38366;53.176;6.540;2022-12-18T02:22:32;-4.10;99.90
52451;DHT22;38366;53.176;6.540;2022-12-18T02:28:13;-4.20;99.90
52451;DHT22;38366;53.176;6.540;2022-12-18T02:30:41;-4.20;99.90
52451;DHT22;38366;53.176;6.540;2022-12-18T02:33:08;-4.40;99.90
52451;DHT22;38366;53.176;6.540;2022-12-18T02:35:36;-2.40;99.90
52451;DHT22;38366;53.176;6.540;2022-12-18T02:38:04;-4.70;99.90
52451;DHT22;38366;53.176;6.540;2022-12-18T02:40:32;-4.20;99.90
52451;DHT22;38366;53.176;6.540;2022-12-18T02:43:09;-3.90;99.90
52451;DHT22;38366;53.176;6.540;2022-12-18T02:45:35;-4.40;99.90
52451;DHT22;38366;53.176;6.540;2022-12-18T02:48:01;-2.20;99.90
52451;DHT22;38366;53.176;6.540;2022-12-18T02:50:35;-4.10;99.90
52451;DHT22;38366;53.176;6.540;2022-12-18T02:53:24;-4.60;99.90
52451;DHT22;38366;53.176;6.540;2022-12-18T02:58:58;-4.30;99.90
52451;DHT22;38366;53.176;6.540;2022-12-18T03:01:35;-4.30;99.90
52451;DHT22;38366;53.176;6.540;2022-12-18T03:04:20;-4.30;99.90
52451;DHT22;38366;53.176;6.540;2022-12-18T03:06:49;-4.70;99.90
52451;DHT22;38366;53.176;6.540;2022-12-18T03:09:19;-4.60;99.90
52451;DHT22;38366;53.176;6.540;2022-12-18T03:11:54;-2.50;99.90
52451;DHT22;38366;53.176;6.540;2022-12-18T03:14:41;-4.20;99.90
52451;DHT22;38366;53.176;6.540;2022-12-18T03:17:11;-4.50;99.90
52451;DHT22;38366;53.176;6.540;2022-12-18T03:19:40;-4.70;99.90
52451;DHT22;38366;53.176;6.540;2022-12-18T03:22:07;-4.70;99.90
52451;DHT22;38366;53.176;6.540;2022-12-18T03:24:35;-3.00;99.90
52451;DHT22;38366;53.176;6.540;2022-12-18T03:27:09;-4.80;99.90
52451;DHT22;38366;53.176;6.540;2022-12-18T03:32:31;-4.60;99.90
52451;DHT22;38366;53.176;6.540;2022-12-18T03:35:00;-4.70;99.90
52451;DHT22;38366;53.176;6.540;2022-12-18T03:37:28;-2.90;99.90
52451;DHT22;38366;53.176;6.540;2022-12-18T03:39:56;-4.50;99.90
52451;DHT22;38366;53.176;6.540;2022-12-18T03:42:29;-4.60;99.90
52451;DHT22;38366;53.176;6.540;2022-12-18T03:45:08;-4.30;99.90
52451;DHT22;38366;53.176;6.540;2022-12-18T03:47:47;-4.40;99.90
52451;DHT22;38366;53.176;6.540;2022-12-18T03:51:33;-3.60;99.90
52451;DHT22;38366;53.176;6.540;2022-12-18T03:53:55;-4.50;99.90
52451;DHT22;38366;53.176;6.540;2022-12-18T03:56:25;-4.50;99.90
52451;DHT22;38366;53.176;6.540;2022-12-18T03:58:52;-2.30;99.90
52451;DHT22;38366;53.176;6.540;2022-12-18T04:01:21;-4.90;99.90
52451;DHT22;38366;53.176;6.540;2022-12-18T04:03:49;-2.30;99.90
52451;DHT22;38366;53.176;6.540;2022-12-18T04:06:16;-4.80;99.90
52451;DHT22;38366;53.176;6.540;2022-12-18T04:08:42;-2.20;99.90
52451;DHT22;38366;53.176;6.540;2022-12-18T04:11:08;-4.90;99.90
52451;DHT22;38366;53.176;6.540;2022-12-18T04:13:36;-4.80;99.90
52451;DHT22;38366;53.176;6.540;2022-12-18T04:16:03;-4.50;99.90
52451;DHT22;38366;53.176;6.540;2022-12-18T04:18:28;-4.40;99.90
52451;DHT22;38366;53.176;6.540;2022-12-18T04:20:54;-1.60;99.90
52451;DHT22;38366;53.176;6.540;2022-12-18T04:23:19;-4.70;99.90
52451;DHT22;38366;53.176;6.540;2022-12-18T04:25:47;-4.70;99.90
52451;DHT22;38366;53.176;6.540;2022-12-18T04:28:12;-4.50;99.90
52451;DHT22;38366;53.176;6.540;2022-12-18T04:30:38;-2.90;99.90
52451;DHT22;38366;53.176;6.540;2022-12-18T04:33:08;-4.90;99.90
52451;DHT22;38366;53.176;6.540;2022-12-18T04:35:35;-2.40;99.90
52451;DHT22;38366;53.176;6.540;2022-12-18T04:38:00;-4.60;99.90
52451;DHT22;38366;53.176;6.540;2022-12-18T04:40:26;-4.80;99.90
52451;DHT22;38366;53.176;6.540;2022-12-18T04:42:52;-4.90;99.90
52451;DHT22;38366;53.176;6.540;2022-12-18T04:45:18;-5.00;99.90
52451;DHT22;38366;53.176;6.540;2022-12-18T04:47:43;-5.10;99.90
52451;DHT22;38366;53.176;6.540;2022-12-18T04:50:09;-2.70;99.90
52451;DHT22;38366;53.176;6.540;2022-12-18T04:52:35;-5.10;99.90
52451;DHT22;38366;53.176;6.540;2022-12-18T04:55:01;-4.90;99.90
52451;DHT22;38366;53.176;6.540;2022-12-18T04:57:26;-4.80;99.90
52451;DHT22;38366;53.176;6.540;2022-12-18T04:59:52;-4.80;99.90
52451;DHT22;38366;53.176;6.540;2022-12-18T05:02:18;-4.80;99.90
52451;DHT22;38366;53.176;6.540;2022-12-18T05:04:43;-2.70;99.90
52451;DHT22;38366;53.176;6.540;2022-12-18T05:07:09;-2.60;99.90
52451;DHT22;38366;53.176;6.540;2022-12-18T05:09:35;-5.10;99.90
52451;DHT22;38366;53.176;6.540;2022-12-18T05:12:00;-5.20;99.90
52451;DHT22;38366;53.176;6.540;2022-12-18T05:14:26;-4.90;99.90
52451;DHT22;38366;53.176;6.540;2022-12-18T05:16:53;-4.80;99.90
52451;DHT22;38366;53.176;6.540;2022-12-18T05:19:18;-5.10;99.90
52451;DHT22;38366;53.176;6.540;2022-12-18T05:21:44;-4.80;99.90
52451;DHT22;38366;53.176;6.540;2022-12-18T05:24:10;-5.20;99.90
52451;DHT22;38366;53.176;6.540;2022-12-18T05:26:35;-3.10;99.90
52451;DHT22;38366;53.176;6.540;2022-12-18T05:29:01;-3.40;99.90
52451;DHT22;38366;53.176;6.540;2022-12-18T05:31:27;-3.40;99.90
52451;DHT22;38366;53.176;6.540;2022-12-18T05:33:53;-2.80;99.90
52451;DHT22;38366;53.176;6.540;2022-12-18T05:36:19;-5.10;99.90
52451;DHT22;38366;53.176;6.540;2022-12-18T05:38:45;-2.80;99.90
52451;DHT22;38366;53.176;6.540;2022-12-18T05:41:10;-5.20;99.90
52451;DHT22;38366;53.176;6.540;2022-12-18T05:43:38;-4.50;99.90
52451;DHT22;38366;53.176;6.540;2022-12-18T05:46:09;-5.10;99.90
52451;DHT22;38366;53.176;6.540;2022-12-18T05:48:36;-4.00;99.90
52451;DHT22;38366;53.176;6.540;2022-12-18T05:51:14;-5.50;99.90
52451;DHT22;38366;53.176;6.540;2022-12-18T05:53:41;-3.30;99.90
52451;DHT22;38366;53.176;6.540;2022-12-18T05:56:13;-2.90;99.90
52451;DHT22;38366;53.176;6.540;2022-12-18T05:58:40;-4.90;99.90
52451;DHT22;38366;53.176;6.540;2022-12-18T06:01:25;-5.30;99.90
52451;DHT22;38366;53.176;6.540;2022-12-18T06:03:51;-5.50;99.90
52451;DHT22;38366;53.176;6.540;2022-12-18T06:06:20;-5.40;99.90
52451;DHT22;38366;53.176;6.540;2022-12-18T06:08:46;-5.10;99.90
52451;DHT22;38366;53.176;6.540;2022-12-18T06:11:12;-3.70;99.90
52451;DHT22;38366;53.176;6.540;2022-12-18T06:13:39;-3.50;99.90
52451;DHT22;38366;53.176;6.540;2022-12-18T06:16:05;-5.30;99.90
52451;DHT22;38366;53.176;6.540;2022-12-18T06:18:32;-5.10;99.90
52451;DHT22;38366;53.176;6.540;2022-12-18T06:20:59;-5.10;99.90
52451;DHT22;38366;53.176;6.540;2022-12-18T06:23:25;-5.50;99.90
52451;DHT22;38366;53.176;6.540;2022-12-18T06:25:55;-5.50;99.90
52451;DHT22;38366;53.176;6.540;2022-12-18T06:28:20;-5.30;99.90
52451;DHT22;38366;53.176;6.540;2022-12-18T06:30:47;-5.40;99.90
52451;DHT22;38366;53.176;6.540;2022-12-18T06:33:14;-3.70;99.90
52451;DHT22;38366;53.176;6.540;2022-12-18T06:35:40;-3.10;99.90
52451;DHT22;38366;53.176;6.540;2022-12-18T06:38:06;-5.20;99.90
52451;DHT22;38366;53.176;6.540;2022-12-18T06:40:32;-5.50;99.90
52451;DHT22;38366;53.176;6.540;2022-12-18T06:42:58;-5.30;99.90
52451;DHT22;38366;53.176;6.540;2022-12-18T06:45:24;-4.30;99.90
52451;DHT22;38366;53.176;6.540;2022-12-18T06:47:50;-5.60;99.90
52451;DHT22;38366;53.176;6.540;2022-12-18T06:50:16;-5.00;99.90
52451;DHT22;38366;53.176;6.540;2022-12-18T06:52:41;-5.40;99.90
52451;DHT22;38366;53.176;6.540;2022-12-18T06:55:10;-5.70;99.90
52451;DHT22;38366;53.176;6.540;2022-12-18T06:57:36;-5.20;99.90
52451;DHT22;38366;53.176;6.540;2022-12-18T07:00:03;-5.50;99.90
52451;DHT22;38366;53.176;6.540;2022-12-18T07:02:29;-5.40;99.90
52451;DHT22;38366;53.176;6.540;2022-12-18T07:04:54;-3.20;99.90
52451;DHT22;38366;53.176;6.540;2022-12-18T07:07:20;-4.90;99.90
52451;DHT22;38366;53.176;6.540;2022-12-18T07:09:46;-5.50;99.90
52451;DHT22;38366;53.176;6.540;2022-12-18T07:12:11;-4.90;99.90
52451;DHT22;38366;53.176;6.540;2022-12-18T07:14:37;-5.50;99.90
52451;DHT22;38366;53.176;6.540;2022-12-18T07:17:03;-5.50;99.90
52451;DHT22;38366;53.176;6.540;2022-12-18T07:19:29;-5.50;99.90
52451;DHT22;38366;53.176;6.540;2022-12-18T07:21:55;-5.40;99.90
52451;DHT22;38366;53.176;6.540;2022-12-18T07:24:20;-5.00;99.90
52451;DHT22;38366;53.176;6.540;2022-12-18T07:26:47;-5.50;99.90
52451;DHT22;38366;53.176;6.540;2022-12-18T07:29:12;-5.40;99.90
52451;DHT22;38366;53.176;6.540;2022-12-18T07:31:38;-4.10;99.90
52451;DHT22;38366;53.176;6.540;2022-12-18T07:34:04;-5.40;99.90
52451;DHT22;38366;53.176;6.540;2022-12-18T07:36:30;-5.40;99.90
52451;DHT22;38366;53.176;6.540;2022-12-18T07:38:55;-5.40;99.90
52451;DHT22;38366;53.176;6.540;2022-12-18T07:41:21;-5.60;99.90
52451;DHT22;38366;53.176;6.540;2022-12-18T07:43:47;-5.40;99.90
52451;DHT22;38366;53.176;6.540;2022-12-18T07:46:14;-3.00;99.90
52451;DHT22;38366;53.176;6.540;2022-12-18T07:48:43;-5.60;99.90
52451;DHT22;38366;53.176;6.540;2022-12-18T07:51:09;-5.40;99.90
52451;DHT22;38366;53.176;6.540;2022-12-18T07:53:35;-5.30;99.90
52451;DHT22;38366;53.176;6.540;2022-12-18T07:56:07;-3.00;99.90
52451;DHT22;38366;53.176;6.540;2022-12-18T07:58:33;-5.10;99.90
52451;DHT22;38366;53.176;6.540;2022-12-18T08:01:10;-5.10;99.90
52451;DHT22;38366;53.176;6.540;2022-12-18T08:03:40;-3.50;99.90
52451;DHT22;38366;53.176;6.540;2022-12-18T08:06:09;-4.50;99.90
52451;DHT22;38366;53.176;6.540;2022-12-18T08:08:35;-3.30;99.90
52451;DHT22;38366;53.176;6.540;2022-12-18T08:11:01;-4.90;99.90
52451;DHT22;38366;53.176;6.540;2022-12-18T08:13:29;-4.00;99.90
52451;DHT22;38366;53.176;6.540;2022-12-18T08:16:03;-3.10;99.90
52451;DHT22;38366;53.176;6.540;2022-12-18T08:18:29;-4.90;99.90
52451;DHT22;38366;53.176;6.540;2022-12-18T08:20:57;-5.00;99.90
52451;DHT22;38366;53.176;6.540;2022-12-18T08:23:22;-2.90;99.90
52451;DHT22;38366;53.176;6.540;2022-12-18T08:25:48;-4.50;99.90
52451;DHT22;38366;53.176;6.540;2022-12-18T08:28:16;-4.70;99.90
52451;DHT22;38366;53.176;6.540;2022-12-18T08:30:42;-3.30;99.90
52451;DHT22;38366;53.176;6.540;2022-12-18T08:33:08;-2.30;99.90
52451;DHT22;38366;53.176;6.540;2022-12-18T08:35:37;-6.30;99.90
52451;DHT22;38366;53.176;6.540;2022-12-18T08:38:03;-4.20;99.90
52451;DHT22;38366;53.176;6.540;2022-12-18T08:40:29;-4.40;99.90
52451;DHT22;38366;53.176;6.540;2022-12-18T08:42:55;-4.60;99.90
52451;DHT22;38366;53.176;6.540;2022-12-18T08:45:39;-3.60;99.90
52451;DHT22;38366;53.176;6.540;2022-12-18T08:48:04;-3.30;99.90
52451;DHT22;38366;53.176;6.540;2022-12-18T08:50:32;-4.30;99.90
52451;DHT22;38366;53.176;6.540;2022-12-18T08:53:02;-3.30;99.90
52451;DHT22;38366;53.176;6.540;2022-12-18T08:55:27;-3.50;99.90
52451;DHT22;38366;53.176;6.540;2022-12-18T08:57:53;-4.10;99.90
52451;DHT22;38366;53.176;6.540;2022-12-18T09:00:19;-3.90;99.90
52451;DHT22;38366;53.176;6.540;2022-12-18T09:02:45;-3.70;99.90
52451;DHT22;38366;53.176;6.540;2022-12-18T09:05:11;-2.40;99.90
52451;DHT22;38366;53.176;6.540;2022-12-18T09:07:36;-3.20;99.90
52451;DHT22;38366;53.176;6.540;2022-12-18T09:10:03;-3.40;99.90
52451;DHT22;38366;53.176;6.540;2022-12-18T09:12:29;-3.30;99.90
52451;DHT22;38366;53.176;6.540;2022-12-18T09:14:54;-3.20;99.90
52451;DHT22;38366;53.176;6.540;2022-12-18T09:17:21;-3.00;99.90
52451;DHT22;38366;53.176;6.540;2022-12-18T09:19:47;-2.80;99.90
52451;DHT22;38366;53.176;6.540;2022-12-18T09:22:13;-2.80;99.90
52451;DHT22;38366;53.176;6.540;2022-12-18T09:24:39;-2.70;99.90
52451;DHT22;38366;53.176;6.540;2022-12-18T09:27:04;-2.60;99.90
52451;DHT22;38366;53.176;6.540;2022-12-18T09:29:30;-1.50;99.90
52451;DHT22;38366;53.176;6.540;2022-12-18T09:31:56;-0.60;99.90
52451;DHT22;38366;53.176;6.540;2022-12-18T09:34:21;-2.40;99.90
52451;DHT22;38366;53.176;6.540;2022-12-18T09:36:48;-0.80;99.90
52451;DHT22;38366;53.176;6.540;2022-12-18T09:39:14;-0.80;99.90
52451;DHT22;38366;53.176;6.540;2022-12-18T09:44:16;-2.10;99.90
52451;DHT22;38366;53.176;6.540;2022-12-18T09:46:47;-2.00;99.90
52451;DHT22;38366;53.176;6.540;2022-12-18T09:49:17;-0.50;99.90
52451;DHT22;38366;53.176;6.540;2022-12-18T09:51:49;-1.50;99.90
52451;DHT22;38366;53.176;6.540;2022-12-18T09:54:47;-1.70;99.90
52451;DHT22;38366;53.176;6.540;2022-12-18T09:57:14;-1.80;99.90
52451;DHT22;38366;53.176;6.540;2022-12-18T09:59:42;-1.90;99.90
52451;DHT22;38366;53.176;6.540;2022-12-18T10:02:18;-0.80;99.90
52451;DHT22;38366;53.176;6.540;2022-12-18T10:04:48;-2.20;99.90
52451;DHT22;38366;53.176;6.540;2022-12-18T10:19:04;-2.30;99.90
52451;DHT22;38366;53.176;6.540;2022-12-18T10:21:39;-2.00;99.90
52451;DHT22;38366;53.176;6.540;2022-12-18T10:24:31;-1.50;99.90
52451;DHT22;38366;53.176;6.540;2022-12-18T10:27:09;-0.80;99.90
52451;DHT22;38366;53.176;6.540;2022-12-18T10:29:36;-0.10;99.90
52451;DHT22;38366;53.176;6.540;2022-12-18T10:32:02;0.20;99.90
52451;DHT22;38366;53.176;6.540;2022-12-18T10:34:28;0.20;99.90
52451;DHT22;38366;53.176;6.540;2022-12-18T10:36:54;0.00;99.90
52451;DHT22;38366;53.176;6.540;2022-12-18T10:39:24;-0.30;99.90
52451;DHT22;38366;53.176;6.540;2022-12-18T10:42:10;-0.50;99.90
52451;DHT22;38366;53.176;6.540;2022-12-18T10:44:37;-0.70;99.90
52451;DHT22;38366;53.176;6.540;2022-12-18T10:47:04;-1.00;99.90
52451;DHT22;38366;53.176;6.540;2022-12-18T10:49:33;-1.20;99.90
52451;DHT22;38366;53.176;6.540;2022-12-18T10:52:17;-1.40;99.90
52451;DHT22;38366;53.176;6.540;2022-12-18T10:55:03;-1.50;99.90
52451;DHT22;38366;53.176;6.540;2022-12-18T10:57:35;-1.50;99.90
52451;DHT22;38366;53.176;6.540;2022-12-18T11:00:27;-1.70;99.90
52451;DHT22;38366;53.176;6.540;2022-12-18T11:02:53;-1.80;99.90
52451;DHT22;38366;53.176;6.540;2022-12-18T11:07:49;-1.90;99.90
52451;DHT22;38366;53.176;6.540;2022-12-18T11:10:17;-0.90;99.90
52451;DHT22;38366;53.176;6.540;2022-12-18T11:12:44;-1.90;99.90
52451;DHT22;38366;53.176;6.540;2022-12-18T11:15:26;-1.90;99.90
52451;DHT22;38366;53.176;6.540;2022-12-18T11:17:53;-1.80;99.90
52451;DHT22;38366;53.176;6.540;2022-12-18T11:20:42;-1.90;99.90
52451;DHT22;38366;53.176;6.540;2022-12-18T11:23:12;-1.90;99.90
52451;DHT22;38366;53.176;6.540;2022-12-18T11:25:39;0.00;99.90
52451;DHT22;38366;53.176;6.540;2022-12-18T11:31:23;-1.80;99.90
52451;DHT22;38366;53.176;6.540;2022-12-18T11:34:07;-1.80;99.90
52451;DHT22;38366;53.176;6.540;2022-12-18T11:36:45;-1.70;99.90
52451;DHT22;38366;53.176;6.540;2022-12-18T11:39:24;-1.70;99.90
52451;DHT22;38366;53.176;6.540;2022-12-18T11:41:57;-0.50;99.90
52451;DHT22;38366;53.176;6.540;2022-12-18T11:44:45;-1.60;99.90
52451;DHT22;38366;53.176;6.540;2022-12-18T11:50:16;-1.60;99.90
52451;DHT22;38366;53.176;6.540;2022-12-18T11:52:42;-0.40;99.90
52451;DHT22;38366;53.176;6.540;2022-12-18T11:55:16;-1.50;99.90
52451;DHT22;38366;53.176;6.540;2022-12-18T11:58:03;-1.50;99.90
52451;DHT22;38366;53.176;6.540;2022-12-18T12:00:31;-1.50;99.90
52451;DHT22;38366;53.176;6.540;2022-12-18T12:03:06;-1.50;99.90
52451;DHT22;38366;53.176;6.540;2022-12-18T12:14:14;-1.40;99.90
52451;DHT22;38366;53.176;6.540;2022-12-18T12:19:38;-1.30;99.90
52451;DHT22;38366;53.176;6.540;2022-12-18T12:22:13;-1.30;99.90
52451;DHT22;38366;53.176;6.540;2022-12-18T12:30:06;-1.20;99.90
52451;DHT22;38366;53.176;6.540;2022-12-18T12:32:39;-1.20;99.90
52451;DHT22;38366;53.176;6.540;2022-12-18T12:35:44;-1.20;99.90
52451;DHT22;38366;53.176;6.540;2022-12-18T12:38:42;-1.20;99.90
52451;DHT22;38366;53.176;6.540;2022-12-18T12:41:12;-1.10;99.90
52451;DHT22;38366;53.176;6.540;2022-12-18T12:44:05;-1.10;99.90
52451;DHT22;38366;53.176;6.540;2022-12-18T12:46:37;-0.60;99.90
52451;DHT22;38366;53.176;6.540;2022-12-18T12:49:15;-0.50;99.90
52451;DHT22;38366;53.176;6.540;2022-12-18T12:51:46;0.20;99.90
52451;DHT22;38366;53.176;6.540;2022-12-18T12:54:22;-1.00;99.90
52451;DHT22;38366;53.176;6.540;2022-12-18T12:57:12;-1.00;99.90
52451;DHT22;38366;53.176;6.540;2022-12-18T12:59:49;-1.00;99.90
52451;DHT22;38366;53.176;6.540;2022-12-18T13:02:42;-0.90;99.90
52451;DHT22;38366;53.176;6.540;2022-12-18T13:05:23;-0.90;99.90
52451;DHT22;38366;53.176;6.540;2022-12-18T13:08:03;-0.80;99.90
52451;DHT22;38366;53.176;6.540;2022-12-18T13:15:45;-0.80;99.90
52451;DHT22;38366;53.176;6.540;2022-12-18T13:18:12;-0.80;99.90
52451;DHT22;38366;53.176;6.540;2022-12-18T13:20:43;-0.70;99.90
52451;DHT22;38366;53.176;6.540;2022-12-18T13:25:45;-0.70;99.90
52451;DHT22;38366;53.176;6.540;2022-12-18T13:28:15;-0.70;99.90
52451;DHT22;38366;53.176;6.540;2022-12-18T13:30:52;-0.40;99.90
52451;DHT22;38366;53.176;6.540;2022-12-18T13:38:23;-0.70;99.90
52451;DHT22;38366;53.176;6.540;2022-12-18T13:45:50;-0.70;99.90
52451;DHT22;38366;53.176;6.540;2022-12-18T13:48:25;-0.40;99.90
52451;DHT22;38366;53.176;6.540;2022-12-18T13:51:04;0.50;99.90
52451;DHT22;38366;53.176;6.540;2022-12-18T13:53:36;-0.70;99.90
52451;DHT22;38366;53.176;6.540;2022-12-18T13:56:04;-0.70;99.90
52451;DHT22;38366;53.176;6.540;2022-12-18T13:58:30;-0.70;99.90
52451;DHT22;38366;53.176;6.540;2022-12-18T14:00:56;-0.70;99.90
52451;DHT22;38366;53.176;6.540;2022-12-18T14:03:27;-0.70;99.90
52451;DHT22;38366;53.176;6.540;2022-12-18T14:06:00;-0.50;99.90
52451;DHT22;38366;53.176;6.540;2022-12-18T14:08:32;0.90;99.90
52451;DHT22;38366;53.176;6.540;2022-12-18T14:10:58;-0.70;99.90
52451;DHT22;38366;53.176;6.540;2022-12-18T14:13:39;-0.70;99.90
52451;DHT22;38366;53.176;6.540;2022-12-18T14:16:06;-0.70;99.90
52451;DHT22;38366;53.176;6.540;2022-12-18T14:18:45;-0.70;99.90
52451;DHT22;38366;53.176;6.540;2022-12-18T14:21:30;-0.70;99.90
52451;DHT22;38366;53.176;6.540;2022-12-18T14:26:30;-0.70;99.90
52451;DHT22;38366;53.176;6.540;2022-12-18T14:29:11;-0.70;99.90
52451;DHT22;38366;53.176;6.540;2022-12-18T14:31:42;-0.70;99.90
52451;DHT22;38366;53.176;6.540;2022-12-18T14:34:15;-0.80;99.90
52451;DHT22;38366;53.176;6.540;2022-12-18T14:36:52;-0.70;99.90
52451;DHT22;38366;53.176;6.540;2022-12-18T14:39:18;-0.80;99.90
52451;DHT22;38366;53.176;6.540;2022-12-18T14:41:43;-0.80;99.90
52451;DHT22;38366;53.176;6.540;2022-12-18T14:44:12;-0.70;99.90
52451;DHT22;38366;53.176;6.540;2022-12-18T14:46:39;-0.80;99.90
52451;DHT22;38366;53.176;6.540;2022-12-18T14:54:39;-0.90;99.90
52451;DHT22;38366;53.176;6.540;2022-12-18T14:57:24;-0.90;99.90
52451;DHT22;38366;53.176;6.540;2022-12-18T14:59:51;-0.90;99.90
52451;DHT22;38366;53.176;6.540;2022-12-18T15:02:27;-1.00;99.90
52451;DHT22;38366;53.176;6.540;2022-12-18T15:07:45;0.20;99.90
52451;DHT22;38366;53.176;6.540;2022-12-18T15:10:19;0.20;99.90
52451;DHT22;38366;53.176;6.540;2022-12-18T15:20:31;-0.90;99.90
52451;DHT22;38366;53.176;6.540;2022-12-18T15:22:58;-1.10;99.90
52451;DHT22;38366;53.176;6.540;2022-12-18T15:27:55;-1.20;99.90
52451;DHT22;38366;53.176;6.540;2022-12-18T15:30:23;-0.80;99.90
52451;DHT22;38366;53.176;6.540;2022-12-18T15:32:50;-1.20;99.90
52451;DHT22;38366;53.176;6.540;2022-12-18T15:35:20;-0.90;99.90
52451;DHT22;38366;53.176;6.540;2022-12-18T15:37:46;-1.30;99.90
52451;DHT22;38366;53.176;6.540;2022-12-18T15:40:15;-1.30;99.90
52451;DHT22;38366;53.176;6.540;2022-12-18T15:42:41;-1.30;99.90
52451;DHT22;38366;53.176;6.540;2022-12-18T15:45:26;-1.30;99.90
52451;DHT22;38366;53.176;6.540;2022-12-18T15:47:52;-1.30;99.90
52451;DHT22;38366;53.176;6.540;2022-12-18T15:50:18;-1.30;99.90
52451;DHT22;38366;53.176;6.540;2022-12-18T15:52:46;-1.40;99.90
52451;DHT22;38366;53.176;6.540;2022-12-18T15:55:18;-1.40;99.90
52451;DHT22;38366;53.176;6.540;2022-12-18T16:01:28;-1.40;99.90
52451;DHT22;38366;53.176;6.540;2022-12-18T16:03:55;-1.20;99.90
52451;DHT22;38366;53.176;6.540;2022-12-18T16:06:21;-1.40;99.90
52451;DHT22;38366;53.176;6.540;2022-12-18T16:08:47;-1.30;99.90
52451;DHT22;38366;53.176;6.540;2022-12-18T16:11:24;-1.40;99.90
52451;DHT22;38366;53.176;6.540;2022-12-18T16:14:26;-1.40;99.90
52451;DHT22;38366;53.176;6.540;2022-12-18T16:16:57;-1.40;99.90
52451;DHT22;38366;53.176;6.540;2022-12-18T16:19:24;-1.40;99.90
52451;DHT22;38366;53.176;6.540;2022-12-18T16:21:52;-1.50;99.90
52451;DHT22;38366;53.176;6.540;2022-12-18T16:24:24;0.30;99.90
52451;DHT22;38366;53.176;6.540;2022-12-18T16:26:51;-1.40;99.90
52451;DHT22;38366;53.176;6.540;2022-12-18T16:29:17;-1.60;99.90
52451;DHT22;38366;53.176;6.540;2022-12-18T16:31:43;-1.50;99.90
52451;DHT22;38366;53.176;6.540;2022-12-18T16:36:39;0.00;99.90
52451;DHT22;38366;53.176;6.540;2022-12-18T16:39:05;-1.40;99.90
52451;DHT22;38366;53.176;6.540;2022-12-18T16:41:31;-1.50;99.90
52451;DHT22;38366;53.176;6.540;2022-12-18T16:43:58;0.30;99.90
52451;DHT22;38366;53.176;6.540;2022-12-18T16:46:23;-0.70;99.90
52451;DHT22;38366;53.176;6.540;2022-12-18T16:48:49;-1.20;99.90
52451;DHT22;38366;53.176;6.540;2022-12-18T16:51:15;-1.50;99.90
52451;DHT22;38366;53.176;6.540;2022-12-18T16:53:41;0.30;99.90
52451;DHT22;38366;53.176;6.540;2022-12-18T16:56:07;0.80;99.90
52451;DHT22;38366;53.176;6.540;2022-12-18T16:58:33;-1.60;99.90
52451;DHT22;38366;53.176;6.540;2022-12-18T17:00:59;0.80;99.90
52451;DHT22;38366;53.176;6.540;2022-12-18T17:03:25;0.00;99.90
52451;DHT22;38366;53.176;6.540;2022-12-18T17:05:50;0.60;99.90
52451;DHT22;38366;53.176;6.540;2022-12-18T17:08:16;-1.40;99.90
52451;DHT22;38366;53.176;6.540;2022-12-18T17:14:16;-1.10;99.90
52451;DHT22;38366;53.176;6.540;2022-12-18T17:16:42;0.30;99.90
52451;DHT22;38366;53.176;6.540;2022-12-18T17:19:08;0.00;99.90
52451;DHT22;38366;53.176;6.540;2022-12-18T17:21:34;-1.00;99.90
52451;DHT22;38366;53.176;6.540;2022-12-18T17:24:00;-1.00;99.90
52451;DHT22;38366;53.176;6.540;2022-12-18T17:26:26;0.50;99.90
52451;DHT22;38366;53.176;6.540;2022-12-18T17:28:52;-1.00;99.90
52451;DHT22;38366;53.176;6.540;2022-12-18T17:31:23;-1.00;99.90
52451;DHT22;38366;53.176;6.540;2022-12-18T17:33:50;-1.00;99.90
52451;DHT22;38366;53.176;6.540;2022-12-18T17:36:17;-0.30;99.90
52451;DHT22;38366;53.176;6.540;2022-12-18T17:38:50;1.00;99.90
52451;DHT22;38366;53.176;6.540;2022-12-18T17:41:15;-0.90;99.90